sensor_id;sensor_type;location;lat;lon;timestamp;P1;durP1;ratioP1;P2;durP2;ratioP2
77876;SDS011;67251;50.844;7.978;2023-03-03T00:00:41;11.85;;;5.03;;
77876;SDS011;67251;50.844;7.978;2023-03-03T00:03:07;15.40;;;5.28;;
77876;SDS011;67251;50.844;7.978;2023-03-03T00:05:34;10.60;;;5.07;;
77876;SDS011;67251;50.844;7.978;2023-03-03T00:08:00;15.95;;;6.18;;
77876;SDS011;67251;50.844;7.978;2023-03-03T00:10:26;13.75;;;6.22;;
77876;SDS011;67251;50.844;7.978;2023-03-03T00:12:52;13.27;;;5.68;;
77876;SDS011;67251;50.844;7.978;2023-03-03T00:15:19;12.57;;;4.75;;
77876;SDS011;67251;50.844;7.978;2023-03-03T00:17:47;10.52;;;4.35;;
77876;SDS011;67251;50.844;7.978;2023-03-03T00:22:53;9.55;;;4.88;;
77876;SDS011;67251;50.844;7.978;2023-03-03T00:27:55;9.90;;;4.70;;
77876;SDS011;67251;50.844;7.978;2023-03-03T00:30:26;12.55;;;5.03;;
77876;SDS011;67251;50.844;7.978;2023-03-03T00:32:54;11.98;;;4.95;;
77876;SDS011;67251;50.844;7.978;2023-03-03T00:35:30;18.85;;;5.88;;
77876;SDS011;67251;50.844;7.978;2023-03-03T00:38:18;15.63;;;6.72;;
77876;SDS011;67251;50.844;7.978;2023-03-03T00:40:44;16.73;;;6.28;;
77876;SDS011;67251;50.844;7.978;2023-03-03T00:48:18;11.98;;;5.30;;
77876;SDS011;67251;50.844;7.978;2023-03-03T00:50:45;10.93;;;4.93;;
77876;SDS011;67251;50.844;7.978;2023-03-03T00:53:14;12.65;;;4.75;;
77876;SDS011;67251;50.844;7.978;2023-03-03T00:55:41;11.68;;;4.95;;
77876;SDS011;67251;50.844;7.978;2023-03-03T00:58:07;10.95;;;4.85;;
77876;SDS011;67251;50.844;7.978;2023-03-03T01:00:33;13.88;;;4.55;;
77876;SDS011;67251;50.844;7.978;2023-03-03T01:03:04;14.25;;;5.35;;
77876;SDS011;67251;50.844;7.978;2023-03-03T01:05:31;13.25;;;4.97;;
77876;SDS011;67251;50.844;7.978;2023-03-03T01:07:57;12.40;;;5.15;;
77876;SDS011;67251;50.844;7.978;2023-03-03T01:10:24;13.70;;;5.32;;
77876;SDS011;67251;50.844;7.978;2023-03-03T01:12:52;12.63;;;4.88;;
77876;SDS011;67251;50.844;7.978;2023-03-03T01:15:17;13.95;;;4.75;;
77876;SDS011;67251;50.844;7.978;2023-03-03T01:17:43;9.57;;;4.47;;
77876;SDS011;67251;50.844;7.978;2023-03-03T01:20:09;10.98;;;4.38;;
77876;SDS011;67251;50.844;7.978;2023-03-03T01:22:37;13.32;;;4.55;;
77876;SDS011;67251;50.844;7.978;2023-03-03T01:25:02;10.23;;;4.57;;
77876;SDS011;67251;50.844;7.978;2023-03-03T01:27:29;8.88;;;5.07;;
77876;SDS011;67251;50.844;7.978;2023-03-03T01:29:55;15.30;;;4.82;;
77876;SDS011;67251;50.844;7.978;2023-03-03T01:32:21;10.20;;;4.57;;
77876;SDS011;67251;50.844;7.978;2023-03-03T01:34:47;12.90;;;5.32;;
77876;SDS011;67251;50.844;7.978;2023-03-03T01:37:13;12.40;;;4.80;;
77876;SDS011;67251;50.844;7.978;2023-03-03T01:39:38;11.68;;;4.68;;
77876;SDS011;67251;50.844;7.978;2023-03-03T01:42:04;10.55;;;4.63;;
77876;SDS011;67251;50.844;7.978;2023-03-03T01:44:29;13.20;;;5.32;;
77876;SDS011;67251;50.844;7.978;2023-03-03T01:50:04;14.73;;;4.90;;
77876;SDS011;67251;50.844;7.978;2023-03-03T01:56:03;11.48;;;4.70;;
77876;SDS011;67251;50.844;7.978;2023-03-03T01:58:35;12.68;;;5.57;;
77876;SDS011;67251;50.844;7.978;2023-03-03T02:01:06;12.20;;;4.75;;
77876;SDS011;67251;50.844;7.978;2023-03-03T02:03:35;9.32;;;4.18;;
77876;SDS011;67251;50.844;7.978;2023-03-03T02:06:05;9.65;;;4.38;;
77876;SDS011;67251;50.844;7.978;2023-03-03T02:08:45;9.95;;;5.03;;
77876;SDS011;67251;50.844;7.978;2023-03-03T02:11:18;11.70;;;4.45;;
77876;SDS011;67251;50.844;7.978;2023-03-03T02:13:45;17.15;;;5.32;;
77876;SDS011;67251;50.844;7.978;2023-03-03T02:16:11;12.80;;;4.45;;
77876;SDS011;67251;50.844;7.978;2023-03-03T02:18:36;16.30;;;5.35;;
77876;SDS011;67251;50.844;7.978;2023-03-03T02:21:11;12.27;;;4.85;;
77876;SDS011;67251;50.844;7.978;2023-03-03T02:26:26;15.55;;;5.28;;
77876;SDS011;67251;50.844;7.978;2023-03-03T02:28:53;15.43;;;6.45;;
77876;SDS011;67251;50.844;7.978;2023-03-03T02:31:23;9.18;;;4.63;;
77876;SDS011;67251;50.844;7.978;2023-03-03T02:33:51;9.68;;;4.20;;
77876;SDS011;67251;50.844;7.978;2023-03-03T02:36:19;15.30;;;5.78;;
77876;SDS011;67251;50.844;7.978;2023-03-03T02:41:38;16.00;;;6.05;;
77876;SDS011;67251;50.844;7.978;2023-03-03T02:44:10;15.13;;;6.18;;
77876;SDS011;67251;50.844;7.978;2023-03-03T02:46:38;16.15;;;6.07;;
77876;SDS011;67251;50.844;7.978;2023-03-03T02:49:06;15.13;;;6.07;;
77876;SDS011;67251;50.844;7.978;2023-03-03T02:51:34;14.38;;;5.18;;
77876;SDS011;67251;50.844;7.978;2023-03-03T02:54:00;15.82;;;4.75;;
77876;SDS011;67251;50.844;7.978;2023-03-03T02:56:26;7.72;;;3.65;;
77876;SDS011;67251;50.844;7.978;2023-03-03T02:58:52;9.30;;;4.15;;
77876;SDS011;67251;50.844;7.978;2023-03-03T03:01:18;9.60;;;3.95;;
77876;SDS011;67251;50.844;7.978;2023-03-03T03:03:43;12.68;;;5.22;;
77876;SDS011;67251;50.844;7.978;2023-03-03T03:06:09;13.40;;;5.22;;
77876;SDS011;67251;50.844;7.978;2023-03-03T03:08:34;12.57;;;5.32;;
77876;SDS011;67251;50.844;7.978;2023-03-03T03:11:00;13.18;;;5.47;;
77876;SDS011;67251;50.844;7.978;2023-03-03T03:13:25;11.00;;;4.93;;
77876;SDS011;67251;50.844;7.978;2023-03-03T03:15:51;11.10;;;4.90;;
77876;SDS011;67251;50.844;7.978;2023-03-03T03:18:17;11.68;;;4.82;;
77876;SDS011;67251;50.844;7.978;2023-03-03T03:20:43;13.80;;;5.72;;
77876;SDS011;67251;50.844;7.978;2023-03-03T03:23:09;13.82;;;5.85;;
77876;SDS011;67251;50.844;7.978;2023-03-03T03:25:35;15.82;;;5.90;;
77876;SDS011;67251;50.844;7.978;2023-03-03T03:28:09;12.80;;;5.03;;
77876;SDS011;67251;50.844;7.978;2023-03-03T03:30:36;10.48;;;5.40;;
77876;SDS011;67251;50.844;7.978;2023-03-03T03:33:02;11.98;;;4.25;;
77876;SDS011;67251;50.844;7.978;2023-03-03T03:35:27;9.35;;;4.18;;
77876;SDS011;67251;50.844;7.978;2023-03-03T03:37:53;11.20;;;3.75;;
77876;SDS011;67251;50.844;7.978;2023-03-03T03:40:18;13.00;;;4.65;;
77876;SDS011;67251;50.844;7.978;2023-03-03T03:42:43;13.80;;;5.25;;
77876;SDS011;67251;50.844;7.978;2023-03-03T03:45:09;16.38;;;5.35;;
77876;SDS011;67251;50.844;7.978;2023-03-03T03:47:39;14.85;;;5.38;;
77876;SDS011;67251;50.844;7.978;2023-03-03T03:50:08;14.93;;;5.28;;
77876;SDS011;67251;50.844;7.978;2023-03-03T03:52:34;10.80;;;5.25;;
77876;SDS011;67251;50.844;7.978;2023-03-03T03:55:00;14.93;;;4.85;;
77876;SDS011;67251;50.844;7.978;2023-03-03T03:57:25;9.20;;;3.80;;
77876;SDS011;67251;50.844;7.978;2023-03-03T03:59:51;14.10;;;5.45;;
77876;SDS011;67251;50.844;7.978;2023-03-03T04:02:16;11.25;;;5.38;;
77876;SDS011;67251;50.844;7.978;2023-03-03T04:04:42;15.82;;;5.85;;
77876;SDS011;67251;50.844;7.978;2023-03-03T04:07:07;15.20;;;5.60;;
77876;SDS011;67251;50.844;7.978;2023-03-03T04:09:32;12.27;;;4.45;;
77876;SDS011;67251;50.844;7.978;2023-03-03T04:11:58;9.10;;;5.00;;
77876;SDS011;67251;50.844;7.978;2023-03-03T04:14:24;10.68;;;4.05;;
77876;SDS011;67251;50.844;7.978;2023-03-03T04:16:49;13.65;;;5.57;;
77876;SDS011;67251;50.844;7.978;2023-03-03T04:19:15;19.70;;;5.90;;
77876;SDS011;67251;50.844;7.978;2023-03-03T04:21:40;18.00;;;5.65;;
77876;SDS011;67251;50.844;7.978;2023-03-03T04:24:06;13.55;;;5.18;;
77876;SDS011;67251;50.844;7.978;2023-03-03T04:26:31;13.52;;;5.68;;
77876;SDS011;67251;50.844;7.978;2023-03-03T04:28:57;10.45;;;4.93;;
77876;SDS011;67251;50.844;7.978;2023-03-03T04:31:23;10.93;;;4.65;;
77876;SDS011;67251;50.844;7.978;2023-03-03T04:33:49;14.80;;;5.47;;
77876;SDS011;67251;50.844;7.978;2023-03-03T04:36:15;15.30;;;6.53;;
77876;SDS011;67251;50.844;7.978;2023-03-03T04:38:41;21.48;;;6.50;;
77876;SDS011;67251;50.844;7.978;2023-03-03T04:41:06;12.10;;;5.13;;
77876;SDS011;67251;50.844;7.978;2023-03-03T04:43:31;13.68;;;5.00;;
77876;SDS011;67251;50.844;7.978;2023-03-03T04:45:57;9.40;;;4.03;;
77876;SDS011;67251;50.844;7.978;2023-03-03T04:48:22;12.90;;;5.45;;
77876;SDS011;67251;50.844;7.978;2023-03-03T04:50:47;13.18;;;6.60;;
77876;SDS011;67251;50.844;7.978;2023-03-03T04:53:13;17.67;;;6.20;;
77876;SDS011;67251;50.844;7.978;2023-03-03T04:55:38;15.23;;;5.57;;
77876;SDS011;67251;50.844;7.978;2023-03-03T04:58:04;14.73;;;4.80;;
77876;SDS011;67251;50.844;7.978;2023-03-03T05:00:30;13.23;;;5.97;;
77876;SDS011;67251;50.844;7.978;2023-03-03T05:02:55;15.25;;;6.82;;
77876;SDS011;67251;50.844;7.978;2023-03-03T05:05:20;18.13;;;7.07;;
77876;SDS011;67251;50.844;7.978;2023-03-03T05:07:46;15.38;;;5.63;;
77876;SDS011;67251;50.844;7.978;2023-03-03T05:10:11;11.45;;;4.65;;
77876;SDS011;67251;50.844;7.978;2023-03-03T05:12:37;16.73;;;7.32;;
77876;SDS011;67251;50.844;7.978;2023-03-03T05:15:03;17.45;;;6.20;;
77876;SDS011;67251;50.844;7.978;2023-03-03T05:17:29;13.60;;;6.35;;
77876;SDS011;67251;50.844;7.978;2023-03-03T05:19:54;18.70;;;7.20;;
77876;SDS011;67251;50.844;7.978;2023-03-03T05:22:21;11.73;;;5.80;;
77876;SDS011;67251;50.844;7.978;2023-03-03T05:24:47;10.65;;;5.00;;
77876;SDS011;67251;50.844;7.978;2023-03-03T05:27:13;13.63;;;5.50;;
77876;SDS011;67251;50.844;7.978;2023-03-03T05:29:39;12.98;;;5.38;;
77876;SDS011;67251;50.844;7.978;2023-03-03T05:32:05;13.98;;;4.40;;
77876;SDS011;67251;50.844;7.978;2023-03-03T05:34:30;9.98;;;4.57;;
77876;SDS011;67251;50.844;7.978;2023-03-03T05:36:56;13.93;;;4.82;;
77876;SDS011;67251;50.844;7.978;2023-03-03T05:39:21;11.98;;;4.18;;
77876;SDS011;67251;50.844;7.978;2023-03-03T05:41:47;11.77;;;4.50;;
77876;SDS011;67251;50.844;7.978;2023-03-03T05:44:12;12.07;;;5.57;;
77876;SDS011;67251;50.844;7.978;2023-03-03T05:46:38;13.77;;;4.90;;
77876;SDS011;67251;50.844;7.978;2023-03-03T05:49:03;14.65;;;5.22;;
77876;SDS011;67251;50.844;7.978;2023-03-03T05:51:29;13.45;;;5.65;;
77876;SDS011;67251;50.844;7.978;2023-03-03T05:53:54;15.52;;;6.05;;
77876;SDS011;67251;50.844;7.978;2023-03-03T05:56:19;17.80;;;6.50;;
77876;SDS011;67251;50.844;7.978;2023-03-03T05:58:45;15.23;;;6.38;;
77876;SDS011;67251;50.844;7.978;2023-03-03T06:01:10;21.17;;;5.75;;
77876;SDS011;67251;50.844;7.978;2023-03-03T06:03:36;16.42;;;5.97;;
77876;SDS011;67251;50.844;7.978;2023-03-03T06:06:01;14.77;;;4.68;;
77876;SDS011;67251;50.844;7.978;2023-03-03T06:08:27;13.82;;;4.97;;
77876;SDS011;67251;50.844;7.978;2023-03-03T06:10:53;19.15;;;6.38;;
77876;SDS011;67251;50.844;7.978;2023-03-03T06:13:19;12.65;;;5.25;;
77876;SDS011;67251;50.844;7.978;2023-03-03T06:15:44;12.52;;;5.63;;
77876;SDS011;67251;50.844;7.978;2023-03-03T06:18:10;18.02;;;6.53;;
77876;SDS011;67251;50.844;7.978;2023-03-03T06:20:35;12.80;;;4.45;;
77876;SDS011;67251;50.844;7.978;2023-03-03T06:23:02;13.77;;;4.03;;
77876;SDS011;67251;50.844;7.978;2023-03-03T06:25:28;11.82;;;5.20;;
77876;SDS011;67251;50.844;7.978;2023-03-03T06:27:53;15.98;;;6.10;;
77876;SDS011;67251;50.844;7.978;2023-03-03T06:30:18;19.38;;;6.93;;
77876;SDS011;67251;50.844;7.978;2023-03-03T06:32:44;12.73;;;5.15;;
77876;SDS011;67251;50.844;7.978;2023-03-03T06:35:10;17.50;;;7.75;;
77876;SDS011;67251;50.844;7.978;2023-03-03T06:37:36;19.33;;;6.80;;
77876;SDS011;67251;50.844;7.978;2023-03-03T06:40:02;17.55;;;6.47;;
77876;SDS011;67251;50.844;7.978;2023-03-03T06:42:29;12.25;;;5.45;;
77876;SDS011;67251;50.844;7.978;2023-03-03T06:44:54;18.73;;;6.05;;
77876;SDS011;67251;50.844;7.978;2023-03-03T06:47:19;13.90;;;4.70;;
77876;SDS011;67251;50.844;7.978;2023-03-03T06:49:45;15.40;;;7.13;;
77876;SDS011;67251;50.844;7.978;2023-03-03T06:52:11;14.55;;;5.70;;
77876;SDS011;67251;50.844;7.978;2023-03-03T06:54:38;18.30;;;7.68;;
77876;SDS011;67251;50.844;7.978;2023-03-03T06:57:13;19.92;;;7.85;;
77876;SDS011;67251;50.844;7.978;2023-03-03T06:59:47;16.27;;;5.95;;
77876;SDS011;67251;50.844;7.978;2023-03-03T07:02:16;15.68;;;6.70;;
77876;SDS011;67251;50.844;7.978;2023-03-03T07:04:42;15.10;;;6.45;;
77876;SDS011;67251;50.844;7.978;2023-03-03T07:07:25;18.85;;;6.47;;
77876;SDS011;67251;50.844;7.978;2023-03-03T07:09:52;20.50;;;6.40;;
77876;SDS011;67251;50.844;7.978;2023-03-03T07:12:23;18.33;;;7.72;;
77876;SDS011;67251;50.844;7.978;2023-03-03T07:15:15;17.30;;;6.18;;
77876;SDS011;67251;50.844;7.978;2023-03-03T07:17:45;17.10;;;7.35;;
77876;SDS011;67251;50.844;7.978;2023-03-03T07:20:20;14.90;;;6.68;;
77876;SDS011;67251;50.844;7.978;2023-03-03T07:22:48;13.48;;;6.38;;
77876;SDS011;67251;50.844;7.978;2023-03-03T07:25:29;18.73;;;7.18;;
77876;SDS011;67251;50.844;7.978;2023-03-03T07:30:35;12.27;;;6.32;;
77876;SDS011;67251;50.844;7.978;2023-03-03T07:33:00;13.32;;;6.13;;
77876;SDS011;67251;50.844;7.978;2023-03-03T07:35:28;17.65;;;7.03;;
77876;SDS011;67251;50.844;7.978;2023-03-03T07:40:58;15.70;;;6.40;;
77876;SDS011;67251;50.844;7.978;2023-03-03T07:46:14;17.38;;;7.93;;
77876;SDS011;67251;50.844;7.978;2023-03-03T07:48:46;21.50;;;7.90;;
77876;SDS011;67251;50.844;7.978;2023-03-03T07:51:24;19.17;;;8.82;;
77876;SDS011;67251;50.844;7.978;2023-03-03T07:53:51;19.52;;;9.80;;
77876;SDS011;67251;50.844;7.978;2023-03-03T07:56:40;18.42;;;8.43;;
77876;SDS011;67251;50.844;7.978;2023-03-03T07:59:15;21.92;;;9.82;;
77876;SDS011;67251;50.844;7.978;2023-03-03T08:01:45;22.75;;;9.73;;
77876;SDS011;67251;50.844;7.978;2023-03-03T08:04:21;22.02;;;9.07;;
77876;SDS011;67251;50.844;7.978;2023-03-03T08:07:10;21.73;;;9.77;;
77876;SDS011;67251;50.844;7.978;2023-03-03T08:09:58;16.75;;;8.73;;
77876;SDS011;67251;50.844;7.978;2023-03-03T08:12:39;18.65;;;8.65;;
77876;SDS011;67251;50.844;7.978;2023-03-03T08:15:11;22.50;;;9.70;;
77876;SDS011;67251;50.844;7.978;2023-03-03T08:17:44;18.75;;;8.82;;
77876;SDS011;67251;50.844;7.978;2023-03-03T08:23:10;18.67;;;8.98;;
77876;SDS011;67251;50.844;7.978;2023-03-03T08:25:37;19.92;;;10.07;;
77876;SDS011;67251;50.844;7.978;2023-03-03T08:28:03;18.77;;;8.38;;
77876;SDS011;67251;50.844;7.978;2023-03-03T08:30:29;19.73;;;9.73;;
77876;SDS011;67251;50.844;7.978;2023-03-03T08:32:56;18.58;;;8.82;;
77876;SDS011;67251;50.844;7.978;2023-03-03T08:35:21;17.17;;;8.55;;
77876;SDS011;67251;50.844;7.978;2023-03-03T08:37:46;18.40;;;8.85;;
77876;SDS011;67251;50.844;7.978;2023-03-03T08:40:12;16.90;;;8.65;;
77876;SDS011;67251;50.844;7.978;2023-03-03T08:42:38;16.83;;;8.98;;
77876;SDS011;67251;50.844;7.978;2023-03-03T08:45:03;18.85;;;9.15;;
77876;SDS011;67251;50.844;7.978;2023-03-03T08:47:29;15.88;;;8.48;;
77876;SDS011;67251;50.844;7.978;2023-03-03T08:49:54;20.60;;;8.88;;
77876;SDS011;67251;50.844;7.978;2023-03-03T08:52:20;16.95;;;9.27;;
77876;SDS011;67251;50.844;7.978;2023-03-03T08:54:45;17.80;;;9.65;;
77876;SDS011;67251;50.844;7.978;2023-03-03T08:57:10;17.38;;;9.82;;
77876;SDS011;67251;50.844;7.978;2023-03-03T08:59:36;17.30;;;9.77;;
77876;SDS011;67251;50.844;7.978;2023-03-03T09:02:03;16.50;;;9.02;;
77876;SDS011;67251;50.844;7.978;2023-03-03T09:06:57;19.25;;;9.82;;
77876;SDS011;67251;50.844;7.978;2023-03-03T09:09:23;18.20;;;9.30;;
77876;SDS011;67251;50.844;7.978;2023-03-03T09:11:48;16.00;;;8.88;;
77876;SDS011;67251;50.844;7.978;2023-03-03T09:14:15;18.52;;;9.60;;
77876;SDS011;67251;50.844;7.978;2023-03-03T09:16:49;17.65;;;8.90;;
77876;SDS011;67251;50.844;7.978;2023-03-03T09:21:51;17.42;;;8.95;;
77876;SDS011;67251;50.844;7.978;2023-03-03T09:24:25;16.52;;;8.70;;
77876;SDS011;67251;50.844;7.978;2023-03-03T09:26:53;19.52;;;9.05;;
77876;SDS011;67251;50.844;7.978;2023-03-03T09:29:23;17.02;;;9.20;;
77876;SDS011;67251;50.844;7.978;2023-03-03T09:31:55;17.95;;;9.50;;
77876;SDS011;67251;50.844;7.978;2023-03-03T09:37:00;18.63;;;9.90;;
77876;SDS011;67251;50.844;7.978;2023-03-03T09:39:30;17.25;;;10.00;;
77876;SDS011;67251;50.844;7.978;2023-03-03T09:42:19;17.83;;;9.60;;
77876;SDS011;67251;50.844;7.978;2023-03-03T09:48:17;17.23;;;9.82;;
77876;SDS011;67251;50.844;7.978;2023-03-03T09:51:00;19.38;;;9.43;;
77876;SDS011;67251;50.844;7.978;2023-03-03T09:56:24;16.10;;;9.15;;
77876;SDS011;67251;50.844;7.978;2023-03-03T09:59:09;17.52;;;9.75;;
77876;SDS011;67251;50.844;7.978;2023-03-03T10:10:37;15.90;;;8.95;;
77876;SDS011;67251;50.844;7.978;2023-03-03T10:18:35;15.70;;;8.55;;
77876;SDS011;67251;50.844;7.978;2023-03-03T10:21:10;14.02;;;8.00;;
77876;SDS011;67251;50.844;7.978;2023-03-03T10:29:20;16.27;;;7.55;;
77876;SDS011;67251;50.844;7.978;2023-03-03T10:31:58;14.85;;;7.57;;
77876;SDS011;67251;50.844;7.978;2023-03-03T10:40:25;16.27;;;8.00;;
77876;SDS011;67251;50.844;7.978;2023-03-03T11:01:58;13.52;;;7.20;;
77876;SDS011;67251;50.844;7.978;2023-03-03T11:07:38;14.52;;;7.10;;
77876;SDS011;67251;50.844;7.978;2023-03-03T11:29:29;10.43;;;5.47;;
77876;SDS011;67251;50.844;7.978;2023-03-03T11:32:22;9.95;;;5.43;;
77876;SDS011;67251;50.844;7.978;2023-03-03T11:40:26;13.10;;;6.13;;
77876;SDS011;67251;50.844;7.978;2023-03-03T11:45:43;13.70;;;6.10;;
77876;SDS011;67251;50.844;7.978;2023-03-03T11:48:21;11.52;;;5.60;;
77876;SDS011;67251;50.844;7.978;2023-03-03T11:51:13;11.65;;;5.43;;
77876;SDS011;67251;50.844;7.978;2023-03-03T11:53:58;10.48;;;5.30;;
77876;SDS011;67251;50.844;7.978;2023-03-03T11:59:24;10.52;;;4.75;;
77876;SDS011;67251;50.844;7.978;2023-03-03T12:04:55;11.90;;;4.65;;
77876;SDS011;67251;50.844;7.978;2023-03-03T12:10:39;9.50;;;4.45;;
77876;SDS011;67251;50.844;7.978;2023-03-03T12:19:08;10.57;;;4.78;;
77876;SDS011;67251;50.844;7.978;2023-03-03T12:29:29;10.07;;;4.93;;
77876;SDS011;67251;50.844;7.978;2023-03-03T12:35:15;10.15;;;4.80;;
77876;SDS011;67251;50.844;7.978;2023-03-03T12:40:31;10.93;;;5.25;;
77876;SDS011;67251;50.844;7.978;2023-03-03T12:45:46;12.57;;;5.60;;
77876;SDS011;67251;50.844;7.978;2023-03-03T12:48:18;10.55;;;4.88;;
77876;SDS011;67251;50.844;7.978;2023-03-03T12:53:38;11.23;;;5.43;;
77876;SDS011;67251;50.844;7.978;2023-03-03T12:56:14;12.05;;;5.25;;
77876;SDS011;67251;50.844;7.978;2023-03-03T13:07:52;9.63;;;4.45;;
77876;SDS011;67251;50.844;7.978;2023-03-03T13:10:47;9.35;;;4.30;;
77876;SDS011;67251;50.844;7.978;2023-03-03T13:13:24;11.23;;;4.70;;
77876;SDS011;67251;50.844;7.978;2023-03-03T13:16:11;11.98;;;5.35;;
77876;SDS011;67251;50.844;7.978;2023-03-03T13:24:18;10.45;;;4.40;;
77876;SDS011;67251;50.844;7.978;2023-03-03T13:29:36;9.88;;;4.50;;
77876;SDS011;67251;50.844;7.978;2023-03-03T13:37:52;9.30;;;4.00;;
77876;SDS011;67251;50.844;7.978;2023-03-03T13:40:23;9.98;;;3.60;;
77876;SDS011;67251;50.844;7.978;2023-03-03T13:42:53;9.18;;;3.40;;
77876;SDS011;67251;50.844;7.978;2023-03-03T13:45:34;8.65;;;3.80;;
77876;SDS011;67251;50.844;7.978;2023-03-03T13:51:28;7.50;;;3.35;;
77876;SDS011;67251;50.844;7.978;2023-03-03T14:05:17;7.65;;;3.35;;
77876;SDS011;67251;50.844;7.978;2023-03-03T14:08:00;9.43;;;3.60;;
77876;SDS011;67251;50.844;7.978;2023-03-03T14:10:35;7.75;;;3.28;;
77876;SDS011;67251;50.844;7.978;2023-03-03T14:13:07;7.65;;;3.28;;
77876;SDS011;67251;50.844;7.978;2023-03-03T14:18:32;8.40;;;3.42;;
77876;SDS011;67251;50.844;7.978;2023-03-03T14:21:20;8.48;;;3.33;;
77876;SDS011;67251;50.844;7.978;2023-03-03T14:24:13;7.20;;;3.15;;
77876;SDS011;67251;50.844;7.978;2023-03-03T14:26:48;8.23;;;3.30;;
77876;SDS011;67251;50.844;7.978;2023-03-03T14:29:18;8.25;;;3.58;;
77876;SDS011;67251;50.844;7.978;2023-03-03T14:31:44;7.78;;;3.55;;
77876;SDS011;67251;50.844;7.978;2023-03-03T14:36:38;8.52;;;3.50;;
77876;SDS011;67251;50.844;7.978;2023-03-03T14:39:50;10.35;;;3.83;;
77876;SDS011;67251;50.844;7.978;2023-03-03T14:42:11;10.85;;;4.55;;
77876;SDS011;67251;50.844;7.978;2023-03-03T14:49:46;10.90;;;4.22;;
77876;SDS011;67251;50.844;7.978;2023-03-03T14:54:45;10.60;;;4.30;;
77876;SDS011;67251;50.844;7.978;2023-03-03T14:59:43;9.85;;;4.05;;
77876;SDS011;67251;50.844;7.978;2023-03-03T15:02:27;10.20;;;4.10;;
77876;SDS011;67251;50.844;7.978;2023-03-03T15:07:43;10.90;;;4.35;;
77876;SDS011;67251;50.844;7.978;2023-03-03T15:10:10;11.68;;;4.57;;
77876;SDS011;67251;50.844;7.978;2023-03-03T15:12:38;10.63;;;4.30;;
77876;SDS011;67251;50.844;7.978;2023-03-03T15:17:35;11.13;;;4.35;;
77876;SDS011;67251;50.844;7.978;2023-03-03T15:20:12;12.77;;;4.47;;
77876;SDS011;67251;50.844;7.978;2023-03-03T15:35:52;11.77;;;4.22;;
77876;SDS011;67251;50.844;7.978;2023-03-03T15:41:16;11.48;;;4.28;;
77876;SDS011;67251;50.844;7.978;2023-03-03T15:46:34;11.52;;;4.13;;
77876;SDS011;67251;50.844;7.978;2023-03-03T16:00:28;10.73;;;4.28;;
77876;SDS011;67251;50.844;7.978;2023-03-03T16:03:01;12.23;;;4.38;;
77876;SDS011;67251;50.844;7.978;2023-03-03T16:05:56;10.15;;;4.05;;
77876;SDS011;67251;50.844;7.978;2023-03-03T16:11:20;13.40;;;4.68;;
77876;SDS011;67251;50.844;7.978;2023-03-03T16:16:32;11.68;;;4.30;;
77876;SDS011;67251;50.844;7.978;2023-03-03T16:30:26;12.10;;;4.53;;
77876;SDS011;67251;50.844;7.978;2023-03-03T16:36:05;13.25;;;4.90;;
77876;SDS011;67251;50.844;7.978;2023-03-03T16:38:49;15.25;;;4.93;;
77876;SDS011;67251;50.844;7.978;2023-03-03T16:41:24;13.77;;;4.32;;
77876;SDS011;67251;50.844;7.978;2023-03-03T16:46:48;14.30;;;5.03;;
77876;SDS011;67251;50.844;7.978;2023-03-03T16:51:55;15.27;;;5.03;;
77876;SDS011;67251;50.844;7.978;2023-03-03T17:10:26;14.68;;;4.95;;
77876;SDS011;67251;50.844;7.978;2023-03-03T17:21:30;14.07;;;4.88;;
77876;SDS011;67251;50.844;7.978;2023-03-03T17:27:06;11.32;;;3.88;;
77876;SDS011;67251;50.844;7.978;2023-03-03T17:30:11;14.73;;;5.28;;
77876;SDS011;67251;50.844;7.978;2023-03-03T17:36:01;13.48;;;4.30;;
77876;SDS011;67251;50.844;7.978;2023-03-03T17:41:18;12.30;;;4.03;;
77876;SDS011;67251;50.844;7.978;2023-03-03T17:44:05;13.82;;;4.65;;
77876;SDS011;67251;50.844;7.978;2023-03-03T17:47:01;16.30;;;4.78;;
77876;SDS011;67251;50.844;7.978;2023-03-03T17:57:59;13.10;;;5.53;;
77876;SDS011;67251;50.844;7.978;2023-03-03T18:34:07;14.52;;;5.40;;
77876;SDS011;67251;50.844;7.978;2023-03-03T18:36:52;19.23;;;6.70;;
77876;SDS011;67251;50.844;7.978;2023-03-03T18:39:37;15.43;;;6.35;;
77876;SDS011;67251;50.844;7.978;2023-03-03T18:44:40;20.17;;;7.10;;
77876;SDS011;67251;50.844;7.978;2023-03-03T18:47:09;20.02;;;7.15;;
77876;SDS011;67251;50.844;7.978;2023-03-03T18:49:49;18.42;;;7.30;;
77876;SDS011;67251;50.844;7.978;2023-03-03T18:52:27;19.48;;;7.72;;
77876;SDS011;67251;50.844;7.978;2023-03-03T18:55:37;25.95;;;8.77;;
77876;SDS011;67251;50.844;7.978;2023-03-03T18:57:58;20.20;;;7.72;;
77876;SDS011;67251;50.844;7.978;2023-03-03T19:00:27;20.35;;;7.40;;
77876;SDS011;67251;50.844;7.978;2023-03-03T19:02:54;18.13;;;7.00;;
77876;SDS011;67251;50.844;7.978;2023-03-03T19:05:27;16.45;;;5.75;;
77876;SDS011;67251;50.844;7.978;2023-03-03T19:08:13;16.27;;;6.18;;
77876;SDS011;67251;50.844;7.978;2023-03-03T19:10:50;16.08;;;6.97;;
77876;SDS011;67251;50.844;7.978;2023-03-03T19:18:33;18.83;;;7.20;;
77876;SDS011;67251;50.844;7.978;2023-03-03T19:21:21;20.70;;;7.40;;
77876;SDS011;67251;50.844;7.978;2023-03-03T19:35:00;20.23;;;6.88;;
77876;SDS011;67251;50.844;7.978;2023-03-03T19:43:49;13.00;;;5.43;;
77876;SDS011;67251;50.844;7.978;2023-03-03T19:55:14;20.10;;;6.60;;
77876;SDS011;67251;50.844;7.978;2023-03-03T20:00:46;18.02;;;6.88;;
77876;SDS011;67251;50.844;7.978;2023-03-03T20:03:28;19.30;;;7.13;;
77876;SDS011;67251;50.844;7.978;2023-03-03T20:06:19;19.55;;;7.28;;
77876;SDS011;67251;50.844;7.978;2023-03-03T20:08:58;19.83;;;6.97;;
77876;SDS011;67251;50.844;7.978;2023-03-03T20:14:18;17.67;;;7.13;;
77876;SDS011;67251;50.844;7.978;2023-03-03T20:16:52;16.50;;;6.80;;
77876;SDS011;67251;50.844;7.978;2023-03-03T20:30:23;19.77;;;8.85;;
77876;SDS011;67251;50.844;7.978;2023-03-03T20:49:39;22.30;;;7.43;;
77876;SDS011;67251;50.844;7.978;2023-03-03T20:52:44;20.42;;;6.78;;
77876;SDS011;67251;50.844;7.978;2023-03-03T21:00:44;19.10;;;7.13;;
77876;SDS011;67251;50.844;7.978;2023-03-03T21:03:17;26.58;;;7.43;;
77876;SDS011;67251;50.844;7.978;2023-03-03T21:06:01;18.83;;;7.93;;
77876;SDS011;67251;50.844;7.978;2023-03-03T21:11:07;22.98;;;8.73;;
77876;SDS011;67251;50.844;7.978;2023-03-03T21:16:02;20.75;;;7.78;;
77876;SDS011;67251;50.844;7.978;2023-03-03T21:18:33;16.80;;;7.85;;
77876;SDS011;67251;50.844;7.978;2023-03-03T21:20:58;19.95;;;7.57;;
77876;SDS011;67251;50.844;7.978;2023-03-03T21:23:31;21.15;;;7.85;;
77876;SDS011;67251;50.844;7.978;2023-03-03T21:25:57;23.02;;;8.43;;
77876;SDS011;67251;50.844;7.978;2023-03-03T21:36:14;15.00;;;6.47;;
77876;SDS011;67251;50.844;7.978;2023-03-03T21:38:45;26.08;;;9.35;;
77876;SDS011;67251;50.844;7.978;2023-03-03T21:41:11;21.50;;;8.32;;
77876;SDS011;67251;50.844;7.978;2023-03-03T21:43:39;21.33;;;6.80;;
77876;SDS011;67251;50.844;7.978;2023-03-03T21:46:07;22.45;;;8.10;;
77876;SDS011;67251;50.844;7.978;2023-03-03T21:48:32;23.42;;;8.80;;
77876;SDS011;67251;50.844;7.978;2023-03-03T21:50:58;26.48;;;9.20;;
77876;SDS011;67251;50.844;7.978;2023-03-03T21:53:23;24.48;;;8.18;;
77876;SDS011;67251;50.844;7.978;2023-03-03T21:55:51;21.77;;;7.90;;
77876;SDS011;67251;50.844;7.978;2023-03-03T21:58:17;23.60;;;8.25;;
77876;SDS011;67251;50.844;7.978;2023-03-03T22:00:43;27.30;;;9.30;;
77876;SDS011;67251;50.844;7.978;2023-03-03T22:03:08;30.42;;;10.23;;
77876;SDS011;67251;50.844;7.978;2023-03-03T22:05:35;26.45;;;8.35;;
77876;SDS011;67251;50.844;7.978;2023-03-03T22:08:00;22.13;;;8.25;;